Time;durP1;ratioP1;P1;durP2;ratioP2;P2;SDS_P1;SDS_P2;PMS_P1;PMS_P2;Temp;Humidity;BMP_temperature;BMP_pressure;BME280_temperature;BME280_humidity;BME280_pressure;Samples;Min_cycle;Max_cycle;Signal;HPM_P1;HPM_P2
2021/12/02 15:35:50;;;;;;;7.18;1.48;;;2.00;99.90;;;;;;5103004;27;2054721;-72
2021/12/02 15:38:16;;;;;;;;;;;2.00;99.90;;;;;;5111606;27;20276;-73
2021/12/02 15:40:43;;;;;;;1.00;0.75;;;1.90;99.90;;;;;;5150506;27;19927;-72
2021/12/02 15:43:17;;;;;;;2.92;0.70;;;1.80;99.90;;;;;;5130372;27;20035;-73
2021/12/02 15:45:44;;;;;;;1.55;0.70;;;1.90;99.90;;;;;;5161856;27;20095;-73
2021/12/02 15:48:10;;;;;;;1.17;0.50;;;1.80;99.90;;;;;;5146705;27;20423;-73
2021/12/02 15:50:36;;;;;;;2.50;0.50;;;1.70;99.90;;;;;;5127061;27;20039;-72
2021/12/02 15:53:06;;;;;;;1.73;0.73;;;1.70;99.90;;;;;;5145502;27;20062;-74
2021/12/02 15:55:33;;;;;;;1.45;0.50;;;1.70;99.90;;;;;;5145754;27;20087;-74
2021/12/02 15:57:59;;;;;;;1.73;0.50;;;1.70;99.90;;;;;;5140101;27;20047;-74
2021/12/02 16:00:25;;;;;;;0.82;0.60;;;1.70;99.90;;;;;;5140357;27;20047;-74
2021/12/02 16:02:56;;;;;;;1.20;0.55;;;1.60;99.90;;;;;;5140348;27;20035;-74
2021/12/02 16:05:33;;;;;;;1.77;0.60;;;1.50;99.90;;;;;;5136661;27;20062;-74
2021/12/02 16:08:26;;;;;;;0.98;0.70;;;1.50;99.90;;;;;;5123733;27;20046;-74
2021/12/02 16:13:19;;;;;;;3.17;1.00;;;1.50;99.90;;;;;;5123810;27;20145;-74
2021/12/02 16:15:45;;;;;;;1.08;0.70;;;1.50;99.90;;;;;;5157323;27;20123;-74
2021/12/02 16:18:11;;;;;;;1.75;0.70;;;1.40;99.90;;;;;;5125158;27;20041;-74
2021/12/02 16:20:37;;;;;;;1.40;0.63;;;1.40;99.90;;;;;;5144819;27;20035;-74
2021/12/02 16:23:03;;;;;;;2.85;0.88;;;;;;;;;;5128012;27;20047;-74
2021/12/02 16:25:28;;;;;;;2.83;0.70;;;1.30;99.90;;;;;;5127239;27;20057;-74
2021/12/02 16:27:56;;;;;;;1.45;0.57;;;;;;;;;;5144957;27;20462;-74
2021/12/02 16:30:22;;;;;;;1.17;0.60;;;1.20;99.90;;;;;;5147167;27;20043;-74
2021/12/02 16:32:48;;;;;;;0.60;0.40;;;1.10;99.90;;;;;;5145080;27;20065;-73
2021/12/02 16:35:14;;;;;;;0.60;0.40;;;1.10;99.90;;;;;;5143812;27;20047;-73
2021/12/02 16:37:41;;;;;;;0.75;0.30;;;1.10;99.90;;;;;;5126598;27;20550;-71
2021/12/02 16:40:14;;;;;;;0.55;0.30;;;1.00;99.90;;;;;;5144155;27;20031;-71
2021/12/02 16:42:48;;;;;;;0.52;0.30;;;0.80;99.90;;;;;;5144308;27;20046;-71
2021/12/02 16:45:16;;;;;;;0.95;0.40;;;0.60;99.90;;;;;;5151433;27;20039;-72
2021/12/02 16:47:42;;;;;;;1.15;0.57;;;0.80;99.90;;;;;;5111385;27;20099;-72
2021/12/02 16:50:09;;;;;;;0.82;0.30;;;0.70;99.90;;;;;;5126304;27;20087;-72
2021/12/02 16:52:36;;;;;;;0.50;0.40;;;;;;;;;;5125649;27;20062;-72
2021/12/02 16:55:04;;;;;;;1.05;0.43;;;0.30;99.90;;;;;;5093301;27;20478;-72
2021/12/02 16:57:29;;;;;;;0.80;0.60;;;0.60;99.90;;;;;;5128571;27;20043;-72
2021/12/02 16:59:56;;;;;;;0.80;0.50;;;0.60;99.90;;;;;;5119631;27;20047;-71
2021/12/02 17:02:23;;;;;;;2.25;0.70;;;0.50;99.90;;;;;;5122294;27;20083;-71
2021/12/02 17:04:50;;;;;;;2.13;1.00;;;0.50;99.90;;;;;;5107316;27;20128;-70
2021/12/02 17:07:16;;;;;;;1.17;0.50;;;0.40;99.90;;;;;;5073263;27;20148;-72
2021/12/02 17:09:42;;;;;;;0.70;0.60;;;0.30;99.90;;;;;;5105238;27;20075;-71
2021/12/02 17:12:08;;;;;;;3.95;1.40;;;0.30;99.90;;;;;;5127597;27;20210;-71
2021/12/02 17:14:35;;;;;;;3.08;2.00;;;0.30;99.90;;;;;;5127111;27;20039;-71
2021/12/02 17:17:03;;;;;;;4.38;1.60;;;0.50;99.90;;;;;;5093999;27;20112;-71
2021/12/02 17:19:29;;;;;;;2.22;1.20;;;0.50;99.90;;;;;;5123647;27;20148;-71
2021/12/02 17:21:55;;;;;;;2.30;1.10;;;0.60;99.90;;;;;;5104125;27;20513;-72
2021/12/02 17:24:26;;;;;;;2.55;1.10;;;0.70;99.90;;;;;;5104164;27;20051;-72
2021/12/02 17:26:53;;;;;;;1.20;0.80;;;0.70;99.90;;;;;;5085637;27;20150;-72
2021/12/02 17:29:19;;;;;;;2.65;1.33;;;0.70;99.90;;;;;;5120729;27;20734;-72
2021/12/02 17:31:45;;;;;;;1.73;0.98;;;0.80;99.90;;;;;;5103934;27;20059;-71
2021/12/02 17:34:11;;;;;;;2.03;1.23;;;0.70;99.90;;;;;;5106934;27;20042;-72
2021/12/02 17:36:37;;;;;;;2.90;1.20;;;0.70;99.90;;;;;;5129525;27;20566;-72
2021/12/02 17:39:05;;;;;;;3.75;1.35;;;0.70;99.90;;;;;;5129252;27;20035;-71
2021/12/02 17:41:31;;;;;;;1.20;0.90;;;0.70;99.90;;;;;;5124727;27;20572;-70
2021/12/02 17:43:56;;;;;;;5.85;1.52;;;0.70;99.90;;;;;;5126705;27;20051;-71
2021/12/02 17:46:24;;;;;;;1.77;0.90;;;0.70;99.90;;;;;;5126413;27;20449;-69
2021/12/02 17:48:51;;;;;;;3.00;1.17;;;0.70;99.90;;;;;;5127024;27;20172;-69
2021/12/02 17:51:17;;;;;;;3.42;1.50;;;0.70;99.90;;;;;;5110512;27;20092;-70
2021/12/02 17:53:43;;;;;;;3.78;1.38;;;0.80;99.90;;;;;;5111451;27;20047;-70
2021/12/02 17:56:09;;;;;;;1.55;1.17;;;0.80;99.90;;;;;;5128882;27;20096;-70
2021/12/02 17:58:35;;;;;;;2.45;1.30;;;0.80;99.90;;;;;;5128503;27;20039;-69
2021/12/02 18:01:02;;;;;;;4.82;1.35;;;0.80;99.90;;;;;;5130106;27;20114;-71
2021/12/02 18:03:28;;;;;;;2.53;1.20;;;0.90;99.90;;;;;;5128147;27;20043;-70
2021/12/02 18:05:54;;;;;;;3.30;1.07;;;0.90;99.90;;;;;;5112994;27;20043;-71
2021/12/02 18:08:20;;;;;;;2.70;1.10;;;0.90;99.90;;;;;;5124500;27;20337;-70
2021/12/02 18:10:46;;;;;;;2.63;1.47;;;1.00;99.90;;;;;;5111421;27;20039;-70
2021/12/02 18:13:11;;;;;;;3.22;1.30;;;1.00;99.90;;;;;;5126474;27;20073;-70
2021/12/02 18:15:37;;;;;;;2.97;1.38;;;1.00;99.90;;;;;;5109361;27;20438;-70
2021/12/02 18:18:07;;;;;;;2.70;1.23;;;1.00;99.90;;;;;;5127085;27;20510;-70
2021/12/02 18:20:33;;;;;;;1.75;1.02;;;1.00;99.90;;;;;;5128058;27;20046;-70
2021/12/02 18:23:00;;;;;;;4.28;1.30;;;1.00;99.90;;;;;;5126742;27;20035;-70
2021/12/02 18:25:26;;;;;;;2.63;1.42;;;1.10;99.90;;;;;;5127374;27;20058;-70
2021/12/02 18:27:52;;;;;;;3.15;1.10;;;1.10;99.90;;;;;;5106743;27;20046;-71
2021/12/02 18:30:18;;;;;;;2.60;1.08;;;1.00;99.90;;;;;;5124034;27;20512;-70
2021/12/02 18:32:44;;;;;;;3.58;0.90;;;1.00;99.90;;;;;;5125642;27;20070;-70
2021/12/02 18:35:11;;;;;;;1.88;0.73;;;0.90;99.90;;;;;;5126846;27;20043;-71
2021/12/02 18:37:37;;;;;;;1.52;0.73;;;0.90;99.90;;;;;;5124794;27;20507;-71
2021/12/02 18:40:04;;;;;;;1.45;0.70;;;0.90;99.90;;;;;;5123781;27;20063;-71
2021/12/02 18:42:30;;;;;;;1.30;0.80;;;0.80;99.90;;;;;;5106416;27;20031;-71
2021/12/02 18:44:58;;;;;;;2.45;0.90;;;0.80;99.90;;;;;;5102006;27;20755;-71
2021/12/02 18:47:25;;;;;;;1.33;0.93;;;0.80;99.90;;;;;;5126770;27;20076;-71
2021/12/02 18:49:55;;;;;;;5.38;3.90;;;0.70;99.90;;;;;;5125731;27;20043;-71
2021/12/02 18:52:24;;;;;;;3.38;2.50;;;0.60;99.90;;;;;;5124103;27;20043;-71
2021/12/02 18:54:49;;;;;;;2.92;2.10;;;0.50;99.90;;;;;;5126285;27;20043;-71
2021/12/02 18:57:15;;;;;;;3.00;1.90;;;0.40;99.90;;;;;;5123791;27;20042;-71
2021/12/02 18:59:43;;;;;;;4.10;2.05;;;0.40;99.90;;;;;;5110329;27;20045;-71
2021/12/02 19:02:13;;;;;;;3.50;1.70;;;0.40;99.90;;;;;;5129439;27;20043;-71
2021/12/02 19:04:39;;;;;;;5.10;1.17;;;0.40;99.90;;;;;;5128864;27;20549;-71
2021/12/02 19:07:11;;;;;;;2.33;1.05;;;0.60;99.90;;;;;;5127987;27;20156;-71
2021/12/02 19:22:41;;;;;;;0.98;0.50;;;0.90;99.90;;;;;;5126806;27;20118;-71
2021/12/02 19:28:25;;;;;;;10.52;4.65;;;0.60;99.90;;;;;;5111686;27;20039;-72
2021/12/02 19:30:51;;;;;;;12.57;5.70;;;0.40;99.90;;;;;;5123351;27;20443;-80
2021/12/02 19:33:17;;;;;;;10.55;5.82;;;0.40;99.90;;;;;;5091228;28;20538;-69
2021/12/02 19:35:43;;;;;;;8.10;3.90;;;0.20;99.90;;;;;;5126524;28;20070;-69
2021/12/02 19:38:09;;;;;;;7.97;3.60;;;0.10;99.90;;;;;;5125705;28;20039;-69
2021/12/02 19:40:36;;;;;;;5.85;2.97;;;0.00;99.90;;;;;;5126067;27;20394;-70
2021/12/02 19:43:03;;;;;;;5.07;2.38;;;-0.10;99.90;;;;;;5110213;28;20039;-71
2021/12/02 19:45:30;;;;;;;3.50;1.55;;;0.00;99.90;;;;;;5126364;28;20103;-70
2021/12/02 19:47:56;;;;;;;3.72;1.08;;;0.10;99.90;;;;;;5122556;28;20055;-70
2021/12/02 19:50:23;;;;;;;1.65;0.90;;;0.40;99.90;;;;;;5105400;28;20166;-70
2021/12/02 19:52:48;;;;;;;;;;;0.50;99.90;;;;;;5125290;28;20123;-72
2021/12/02 19:55:14;;;;;;;0.85;0.40;;;0.80;99.90;;;;;;5126058;28;19992;-72
2021/12/02 19:57:40;;;;;;;2.47;0.50;;;0.80;99.90;;;;;;5122997;28;20054;-73
2021/12/02 20:00:11;;;;;;;2.08;0.40;;;0.90;99.90;;;;;;5108936;28;20160;-71
2021/12/02 20:02:37;;;;;;;1.10;0.20;;;0.90;99.90;;;;;;5123592;28;20043;-71
2021/12/02 20:05:04;;;;;;;1.65;0.38;;;1.00;99.90;;;;;;5121941;28;20039;-72
2021/12/02 20:07:30;;;;;;;0.65;0.20;;;1.00;99.90;;;;;;5107908;28;20058;-71
2021/12/02 20:09:55;;;;;;;1.10;0.40;;;1.10;99.90;;;;;;5105492;28;20454;-72
2021/12/02 20:12:21;;;;;;;0.50;0.20;;;1.00;99.90;;;;;;5105616;28;20078;-72
2021/12/02 20:14:47;;;;;;;1.55;0.35;;;1.00;99.90;;;;;;5125471;28;20047;-71
2021/12/02 20:17:20;;;;;;;1.33;0.40;;;1.00;99.90;;;;;;5124838;28;20059;-71
2021/12/02 20:19:46;;;;;;;0.60;0.30;;;1.00;99.90;;;;;;5124643;27;20035;-71
2021/12/02 20:22:12;;;;;;;0.85;0.40;;;1.10;99.90;;;;;;5129540;27;20039;-71
2021/12/02 20:24:38;;;;;;;2.45;0.70;;;1.00;99.90;;;;;;5126314;27;20083;-71
2021/12/02 20:27:04;;;;;;;3.25;0.90;;;1.00;99.90;;;;;;5129777;27;20502;-73
2021/12/02 20:29:31;;;;;;;2.40;0.93;;;0.90;99.90;;;;;;5130478;27;20401;-73
2021/12/02 20:31:57;;;;;;;3.60;1.08;;;0.90;99.90;;;;;;5129281;27;20039;-73
2021/12/02 20:34:23;;;;;;;2.85;0.95;;;0.90;99.90;;;;;;5124724;27;20058;-73
2021/12/02 20:36:50;;;;;;;2.92;0.88;;;0.90;99.90;;;;;;5111773;27;20506;-72
2021/12/02 20:39:17;;;;;;;1.02;0.65;;;0.90;99.90;;;;;;5128232;27;20043;-71
2021/12/02 20:41:47;;;;;;;1.77;0.68;;;0.90;99.90;;;;;;5110808;27;20101;-72
2021/12/02 20:44:13;;;;;;;2.58;0.63;;;0.80;99.90;;;;;;5106978;27;20083;-72
2021/12/02 20:46:41;;;;;;;1.38;0.50;;;0.80;99.90;;;;;;5123183;27;20062;-73
2021/12/02 20:49:27;;;;;;;2.88;0.90;;;0.90;99.90;;;;;;5104975;27;20148;-73
2021/12/02 20:51:54;;;;;;;2.15;0.80;;;1.00;99.90;;;;;;5109401;27;20027;-72
2021/12/02 20:54:22;;;;;;;1.80;0.70;;;1.00;99.90;;;;;;5109158;27;20058;-72
2021/12/02 20:56:49;;;;;;;2.65;0.50;;;1.00;99.90;;;;;;5125437;27;20229;-72
2021/12/02 20:59:15;;;;;;;2.28;0.80;;;1.10;99.90;;;;;;5108035;27;20095;-73
2021/12/02 21:01:40;;;;;;;2.10;1.00;;;1.20;99.90;;;;;;5127577;27;20055;-72
2021/12/02 21:04:06;;;;;;;2.07;1.13;;;1.20;99.90;;;;;;5111063;27;20047;-72
2021/12/02 21:06:32;;;;;;;2.42;1.40;;;1.20;99.90;;;;;;5113808;27;20122;-72
2021/12/02 21:09:00;;;;;;;5.40;1.80;;;1.10;99.90;;;;;;5109998;27;20043;-72
2021/12/02 21:11:31;;;;;;;4.15;1.60;;;1.10;99.90;;;;;;5128498;27;20493;-71
2021/12/02 21:13:58;;;;;;;3.13;1.50;;;1.10;99.90;;;;;;5130059;27;20057;-71
2021/12/02 21:16:24;;;;;;;5.47;1.90;;;1.10;99.90;;;;;;5129667;27;20051;-71
2021/12/02 21:18:50;;;;;;;4.18;1.80;;;1.00;99.90;;;;;;5129586;27;20118;-72
2021/12/02 21:21:19;;;;;;;3.40;1.50;;;1.00;99.90;;;;;;5128606;27;20753;-72
2021/12/02 21:23:46;;;;;;;2.85;1.30;;;1.10;99.90;;;;;;5112566;27;20046;-71
2021/12/02 21:26:13;;;;;;;5.15;1.63;;;1.10;99.90;;;;;;5111331;27;20035;-73
2021/12/02 21:28:41;;;;;;;4.22;1.50;;;1.10;99.90;;;;;;5126346;27;20035;-73
2021/12/02 21:31:07;;;;;;;3.08;1.38;;;1.00;99.90;;;;;;5131164;27;20039;-73
2021/12/02 21:33:36;;;;;;;2.20;1.00;;;0.90;99.90;;;;;;5130769;27;20063;-73
2021/12/02 21:36:10;;;;;;;4.28;1.55;;;0.90;99.90;;;;;;5121004;27;20130;-73
2021/12/02 21:38:39;;;;;;;3.05;1.30;;;0.90;99.90;;;;;;5130015;27;20199;-73
2021/12/02 21:41:14;;;;;;;5.47;1.50;;;0.80;99.90;;;;;;5115565;27;20127;-73
2021/12/02 21:43:39;;;;;;;2.65;1.48;;;0.80;99.90;;;;;;5128121;27;20043;-73
2021/12/02 21:46:06;;;;;;;5.18;1.70;;;0.80;99.90;;;;;;5111290;27;20042;-73
2021/12/02 21:48:32;;;;;;;4.22;1.50;;;0.90;99.90;;;;;;5127171;27;20035;-73
2021/12/02 21:50:59;;;;;;;;;;;0.90;99.90;;;;;;5127082;27;20061;-73
2021/12/02 21:53:25;;;;;;;2.80;1.10;;;0.80;99.90;;;;;;5111185;27;19922;-72
2021/12/02 21:55:51;;;;;;;3.00;1.20;;;0.80;99.90;;;;;;5127146;27;20043;-73
2021/12/02 21:58:18;;;;;;;4.60;1.20;;;0.80;99.90;;;;;;5126886;27;20051;-73
2021/12/02 22:00:50;;;;;;;3.33;1.10;;;0.80;99.90;;;;;;5095569;27;20027;-73
2021/12/02 22:03:16;;;;;;;3.55;1.33;;;-0.10;99.90;;;;;;5110716;27;20055;-73
2021/12/02 22:05:43;;;;;;;3.03;1.30;;;0.90;99.90;;;;;;5093809;27;20042;-73
2021/12/02 22:08:09;;;;;;;2.72;1.02;;;1.00;99.90;;;;;;5109634;28;20043;-73
2021/12/02 22:10:35;;;;;;;2.28;1.02;;;1.10;99.90;;;;;;5103202;27;20050;-73
2021/12/02 22:13:01;;;;;;;2.67;1.05;;;1.10;99.90;;;;;;5129445;27;20038;-73
2021/12/02 22:15:27;;;;;;;1.85;0.90;;;1.20;99.90;;;;;;5126803;27;20031;-73
2021/12/02 22:17:53;;;;;;;1.92;1.05;;;1.30;99.90;;;;;;5125650;27;20039;-73
2021/12/02 22:20:19;;;;;;;2.67;0.75;;;1.30;99.90;;;;;;5127985;27;20031;-73
2021/12/02 22:22:46;;;;;;;3.05;0.80;;;1.40;99.90;;;;;;5114325;27;20035;-74
2021/12/02 22:25:14;;;;;;;2.63;0.85;;;1.40;99.90;;;;;;5128415;27;20051;-74
2021/12/02 22:27:41;;;;;;;4.13;0.90;;;1.60;99.90;;;;;;5125395;27;20098;-73
2021/12/02 22:30:09;;;;;;;2.30;0.90;;;1.60;99.90;;;;;;5109806;27;20894;-73
2021/12/02 22:32:35;;;;;;;5.00;0.98;;;1.70;99.90;;;;;;5124929;27;20502;-74
2021/12/02 22:35:01;;;;;;;5.38;1.08;;;1.70;99.90;;;;;;5094154;27;20353;-73
2021/12/02 22:37:28;;;;;;;2.40;0.82;;;1.60;99.90;;;;;;5107866;27;20039;-73
2021/12/02 22:39:57;;;;;;;5.22;1.00;;;1.60;99.90;;;;;;5128311;27;20043;-73
2021/12/02 22:42:24;;;;;;;1.38;0.70;;;1.70;99.90;;;;;;5126765;27;20043;-73
2021/12/02 22:44:50;;;;;;;;;;;1.60;99.90;;;;;;5110569;27;20046;-73
2021/12/02 22:47:16;;;;;;;2.78;0.90;;;1.60;99.90;;;;;;5125306;27;19923;-73
2021/12/02 22:49:42;;;;;;;2.20;0.90;;;1.60;99.90;;;;;;5111715;27;20111;-73
2021/12/02 22:52:08;;;;;;;1.65;1.00;;;1.50;99.90;;;;;;5128061;27;20110;-72
2021/12/02 22:54:36;;;;;;;4.63;1.08;;;1.50;99.90;;;;;;5102609;28;20047;-72
2021/12/02 22:57:04;;;;;;;3.15;1.00;;;1.50;99.90;;;;;;5110091;27;20039;-72
2021/12/02 22:59:30;;;;;;;4.13;0.98;;;1.50;99.90;;;;;;5128100;27;20378;-73
2021/12/02 23:01:56;;;;;;;3.75;1.10;;;1.40;99.90;;;;;;5129013;27;20050;-72
2021/12/02 23:04:21;;;;;;;4.35;1.27;;;1.40;99.90;;;;;;5129023;27;20050;-73
2021/12/02 23:06:47;;;;;;;3.38;0.98;;;1.50;99.90;;;;;;5109439;28;20071;-74
2021/12/02 23:09:14;;;;;;;3.70;1.30;;;1.40;99.90;;;;;;5129164;27;20501;-74
2021/12/02 23:11:41;;;;;;;4.75;1.30;;;1.40;99.90;;;;;;5110698;27;20050;-73
2021/12/02 23:14:09;;;;;;;1.95;1.05;;;1.40;99.90;;;;;;5125115;27;20039;-72
2021/12/02 23:16:37;;;;;;;3.03;1.08;;;1.40;99.90;;;;;;5126384;27;20074;-72
2021/12/02 23:19:04;;;;;;;2.53;0.93;;;1.40;99.90;;;;;;5128869;27;20126;-72
2021/12/02 23:21:31;;;;;;;1.73;1.00;;;1.30;99.90;;;;;;5112194;27;20202;-71
2021/12/02 23:24:00;;;;;;;3.15;1.00;;;1.30;99.90;;;;;;5128084;27;20079;-71
2021/12/02 23:26:28;;;;;;;3.83;1.10;;;1.30;99.90;;;;;;5128993;27;20057;-71
2021/12/02 23:28:55;;;;;;;5.88;1.35;;;1.20;99.90;;;;;;5112725;27;20035;-71
2021/12/02 23:31:22;;;;;;;;;;;1.20;99.90;;;;;;5137846;27;20039;-71
2021/12/02 23:33:50;;;;;;;3.00;1.30;;;1.20;99.90;;;;;;5128916;27;20365;-71
2021/12/02 23:36:21;;;;;;;5.13;1.27;;;1.30;99.90;;;;;;5128421;28;20292;-72
2021/12/02 23:38:47;;;;;;;3.92;1.33;;;1.20;99.90;;;;;;5128864;28;20042;-72
2021/12/02 23:41:13;;;;;;;4.68;1.23;;;1.30;99.90;;;;;;5111215;28;20031;-72
2021/12/02 23:43:40;;;;;;;3.85;1.25;;;1.30;99.90;;;;;;5128909;28;20039;-72
2021/12/02 23:46:07;;;;;;;3.00;1.20;;;1.30;99.90;;;;;;5128605;28;20150;-72
2021/12/02 23:48:35;;;;;;;;;;;1.30;99.90;;;;;;5129340;28;20051;-72
2021/12/02 23:51:04;;;;;;;2.60;1.00;;;1.30;99.90;;;;;;5128673;28;20381;-72
2021/12/02 23:53:30;;;;;;;4.07;1.33;;;1.30;99.90;;;;;;5125229;28;20039;-72
2021/12/02 23:55:57;;;;;;;;;;;1.30;99.90;;;;;;5113192;27;20182;-73
2021/12/02 23:58:23;;;;;;;3.88;1.00;;;1.30;99.90;;;;;;5133160;27;19919;-73
